Time;durP1;ratioP1;P1;durP2;ratioP2;P2;SDS_P1;SDS_P2;PMS_P1;PMS_P2;Temp;Humidity;BMP_temperature;BMP_pressure;BME280_temperature;BME280_humidity;BME280_pressure;Samples;Min_cycle;Max_cycle;Signal;HPM_P1;HPM_P2
2024/01/14 00:03:01;;;;;;;;;;;;;;;;;;;;;
2024/01/14 00:06:13;;;;;;;;;;;;;;;;;;;;;
2024/01/14 00:09:32;;;;;;;;;;;;;;;;;;;;;
2024/01/14 00:12:58;;;;;;;14.90;12.20;;;;;;;2.10;100.00;99253.75;108130;1287;22017;-80
2024/01/14 00:15:47;;;;;;;;;;;;;;;;;;;;;
2024/01/14 00:18:52;;;;;;;13.90;12.50;;;;;;;2.14;100.00;99246.28;107791;1288;22007;-79
2024/01/14 00:22:18;;;;;;;12.80;11.60;;;;;;;2.27;100.00;99244.80;107664;1294;544285;-78
2024/01/14 00:26:28;;;;;;;12.70;11.50;;;;;;;2.21;100.00;99244.58;109892;1267;23806;-80
2024/01/14 00:29:36;;;;;;;;;;;;;;;;;;;;;
2024/01/14 00:33:57;;;;;;;;;;;;;;;;;;;;;
2024/01/14 00:37:59;;;;;;;;;;;;;;;;;;;;;
2024/01/14 00:41:33;;;;;;;13.00;11.50;;;;;;;2.14;100.00;99221.73;108932;1277;21922;-79
2024/01/14 00:45:06;;;;;;;;;;;;;;;;;;;;;
2024/01/14 00:48:40;;;;;;;;;;;;;;;;;;;;;
2024/01/14 00:56:13;;;;;;;12.50;10.70;;;;;;;2.22;100.00;99197.87;108145;1288;23731;-78
2024/01/14 00:59:51;;;;;;;;;;;;;;;;;;;;;
2024/01/14 01:03:42;;;;;;;;;;;;;;;;;;;;;
2024/01/14 01:07:41;;;;;;;11.40;10.20;;;;;;;2.16;100.00;99173.79;107581;1298;22101;-79
2024/01/14 01:11:11;;;;;;;;;;;;;;;;;;;;;
2024/01/14 01:14:07;;;;;;;12.70;11.00;;;;;;;2.12;100.00;99170.09;107415;1296;23185;-79
2024/01/14 01:17:33;;;;;;;;;;;;;;;;;;;;;
2024/01/14 01:20:58;;;;;;;;;;;;;;;;;;;;;
2024/01/14 01:30:03;;;;;;;10.50;9.50;;;;;;;2.09;100.00;99147.19;107140;1299;22056;-78
2024/01/14 01:33:16;;;;;;;11.90;10.40;;;;;;;2.07;100.00;99138.98;106998;1300;22022;-77
2024/01/14 01:39:26;;;;;;;12.40;11.20;;;;;;;2.07;100.00;99127.30;106917;1302;22018;-78
2024/01/14 01:46:42;;;;;;;;;;;;;;;;;;;;;
2024/01/14 01:50:58;;;;;;;;;;;;;;;;;;;;;
2024/01/14 01:54:23;;;;;;;10.70;9.70;;;;;;;1.89;100.00;99113.98;107645;1298;22012;-78
2024/01/14 02:01:07;;;;;;;;;;;;;;;;;;;;;
2024/01/14 02:04:42;;;;;;;;;;;;;;;;;;;;;
2024/01/14 02:13:50;;;;;;;11.60;9.70;;;;;;;1.83;100.00;99095.42;108194;1289;22015;-78
2024/01/14 02:17:35;;;;;;;11.60;9.00;;;;;;;1.85;100.00;99085.43;107180;1297;22009;-79
2024/01/14 02:25:07;;;;;;;;;;;;;;;;;;;;;
2024/01/14 02:37:44;;;;;;;;;;;;;;;;;;;;;
2024/01/14 02:42:04;;;;;;;8.90;8.00;;;;;;;2.08;100.00;99050.92;109712;1258;21970;-78
2024/01/14 02:45:30;;;;;;;7.90;7.20;;;;;;;1.95;100.00;99050.37;108638;1280;22071;-77
2024/01/14 02:49:20;;;;;;;;;;;;;;;;;;;;;
2024/01/14 02:52:54;;;;;;;8.70;7.90;;;;;;;1.91;100.00;99044.11;101540;1284;22200;-78
2024/01/14 02:57:25;;;;;;;9.30;8.00;;;;;;;1.87;100.00;99042.16;107699;1294;22093;-78
2024/01/14 03:05:25;;;;;;;;;;;;;;;;;;;;;
2024/01/14 03:08:59;;;;;;;7.80;7.10;;;;;;;1.75;100.00;99016.00;106749;1303;22015;-78
2024/01/14 03:14:05;;;;;;;8.00;7.20;;;;;;;1.96;100.00;99011.23;107681;1293;548039;-79
2024/01/14 03:18:15;;;;;;;9.30;8.40;;;;;;;1.88;100.00;99016.23;108469;1284;23054;-79
2024/01/14 03:26:11;;;;;;;;;;;;;;;;;;;;;
2024/01/14 03:29:57;;;;;;;8.80;7.00;;;;;;;1.76;100.00;99003.98;107635;1297;22004;-78
2024/01/14 03:32:59;;;;;;;8.50;6.50;;;;;;;1.79;100.00;99002.20;107507;1296;22516;-78
2024/01/14 03:35:58;;;;;;;6.40;5.60;;;;;;;1.81;100.00;99003.34;107533;1297;22015;-79
2024/01/14 03:38:44;;;;;;;8.10;7.00;;;;;;;1.85;100.00;99004.80;107403;1297;22113;-78
2024/01/14 03:42:02;;;;;;;9.30;8.40;;;;;;;1.90;100.00;99004.69;107326;1297;24447;-78
2024/01/14 03:44:59;;;;;;;;;;;;;;;;;;;;;
2024/01/14 03:48:32;;;;;;;9.50;8.60;;;;;;;1.90;100.00;98999.89;107542;1297;21989;-78
2024/01/14 03:52:26;;;;;;;;;;;;;;;;;;;;;
2024/01/14 03:56:37;;;;;;;7.80;7.10;;;;;;;1.85;100.00;99004.29;108897;1278;22987;-79
2024/01/14 04:00:29;;;;;;;;;;;;;;;;;;;;;
2024/01/14 04:04:08;;;;;;;8.80;7.90;;;;;;;1.88;100.00;98999.77;109111;1275;21980;-79
2024/01/14 04:07:52;;;;;;;10.20;8.20;;;;;;;1.91;100.00;98996.23;109064;1275;22093;-79
2024/01/14 04:11:34;;;;;;;;;;;;;;;;;;;;;
2024/01/14 04:23:29;;;;;;;9.00;7.00;;;;;;;1.80;100.00;98974.05;108724;1279;23612;-78
2024/01/14 04:26:42;;;;;;;8.00;7.20;;;;;;;1.94;100.00;98986.08;108765;1275;22015;-77
2024/01/14 04:29:37;;;;;;;9.30;7.70;;;;;;;1.94;100.00;98983.48;108979;1275;21983;-77
2024/01/14 04:32:24;;;;;;;7.50;6.80;;;;;;;1.83;100.00;98961.62;108800;1278;23563;-78
2024/01/14 04:35:27;;;;;;;9.30;8.40;;;;;;;1.82;100.00;98959.08;108882;1274;23723;-78
2024/01/14 04:38:26;;;;;;;10.30;9.00;;;;;;;1.90;100.00;98972.79;109411;1270;21976;-78
2024/01/14 04:41:43;;;;;;;;;;;;;;;;;;;;;
2024/01/14 04:44:59;;;;;;;;;;;;;;;;;;;;;
2024/01/14 04:47:43;;;;;;;7.70;7.00;;;;;;;1.90;100.00;98979.48;108961;1264;23059;-78
2024/01/14 04:50:23;;;;;;;6.10;5.60;;;;;;;1.92;100.00;98977.18;108637;1278;21997;-78
2024/01/14 04:57:27;;;;;;;8.80;7.30;;;;;;;1.91;100.00;98968.63;108429;1284;23161;-78
2024/01/14 05:01:13;;;;;;;7.70;6.30;;;;;;;1.92;100.00;98970.83;108580;1281;23618;-78
2024/01/14 05:04:10;;;;;;;9.20;6.00;;;;;;;1.89;100.00;98952.91;108385;1285;23829;-79
2024/01/14 05:07:29;;;;;;;10.00;6.30;;;;;;;1.99;100.00;98962.08;108565;1285;22298;-78
2024/01/14 05:11:02;;;;;;;13.00;10.00;;;;;;;1.99;100.00;98963.62;108598;1279;23052;-79
2024/01/14 05:14:29;;;;;;;;;;;;;;;;;;;;;
2024/01/14 05:17:38;;;;;;;9.30;5.30;;;;;;;2.05;100.00;98967.61;108897;1280;21998;-79
2024/01/14 05:20:59;;;;;;;7.00;4.30;;;;;;;2.05;100.00;98968.62;108045;1288;23760;-77
2024/01/14 05:24:37;;;;;;;4.60;3.90;;;;;;;2.05;100.00;98967.93;107971;1289;22027;-79
2024/01/14 05:28:43;;;;;;;7.90;3.90;;;;;;;2.06;100.00;98971.86;107828;1289;23624;-78
2024/01/14 05:31:59;;;;;;;5.00;4.30;;;;;;;2.07;100.00;98973.23;107329;1298;23753;-81
2024/01/14 05:35:39;;;;;;;4.70;3.30;;;;;;;2.06;100.00;98973.40;107241;1298;22489;-79
2024/01/14 05:38:33;;;;;;;7.10;5.50;;;;;;;2.08;100.00;98971.13;108145;1284;21994;-78
2024/01/14 05:42:45;;;;;;;6.50;4.90;;;;;;;2.09;100.00;98965.96;108374;1284;23755;-78
2024/01/14 05:46:08;;;;;;;6.90;5.30;;;;;;;2.04;100.00;98959.73;108016;1291;22470;-77
2024/01/14 05:49:03;;;;;;;7.60;5.10;;;;;;;2.02;100.00;98956.36;108105;1290;22001;-77
2024/01/14 05:51:37;;;;;;;9.20;5.30;;;;;;;2.03;100.00;98948.29;108025;1290;23657;-77
2024/01/14 05:54:15;;;;;;;10.50;7.40;;;;;;;2.01;100.00;98948.48;108052;1287;22043;-76
2024/01/14 05:56:58;;;;;;;15.10;8.60;;;;;;;2.02;100.00;98947.61;108099;1289;23075;-77
2024/01/14 06:00:23;;;;;;;11.30;7.00;;;;;;;1.99;100.00;98947.50;107758;1294;22031;-78
2024/01/14 06:03:28;;;;;;;8.90;6.40;;;;;;;1.97;100.00;98950.80;107740;1288;23742;-78
2024/01/14 06:06:40;;;;;;;7.40;5.20;;;;;;;2.00;100.00;98956.07;108066;1288;22007;-79
2024/01/14 06:09:47;;;;;;;8.90;4.40;;;;;;;2.00;100.00;98952.10;108867;1278;22029;-78
2024/01/14 06:12:39;;;;;;;23.80;18.00;;;;;;;2.03;100.00;98956.85;108493;1282;23168;-78
2024/01/14 06:15:31;;;;;;;;;;;;;;;;;;;;;
2024/01/14 06:18:28;;;;;;;6.50;4.90;;;;;;;2.07;100.00;98957.42;108809;1277;21982;-77
2024/01/14 06:21:12;;;;;;;7.70;5.70;;;;;;;2.09;100.00;98959.79;108891;1273;23036;-78
2024/01/14 06:23:49;;;;;;;7.60;5.30;;;;;;;2.12;100.00;98962.63;109389;1272;23056;-76
2024/01/14 06:26:30;;;;;;;5.70;5.10;;;;;;;2.15;100.00;98965.46;109183;1275;22057;-77
2024/01/14 06:29:14;;;;;;;6.00;5.20;;;;;;;2.17;100.00;98970.40;109050;1275;21985;-77
2024/01/14 06:32:31;;;;;;;7.40;5.70;;;;;;;2.16;100.00;98974.52;108877;1276;23631;-80
2024/01/14 06:35:35;;;;;;;9.70;6.70;;;;;;;2.17;100.00;98979.30;109056;1276;23739;-76
2024/01/14 06:38:25;;;;;;;9.00;6.10;;;;;;;2.19;100.00;98977.20;108437;1284;22004;-78
2024/01/14 06:41:18;;;;;;;;;;;;;;;;;;;;;
2024/01/14 06:45:04;;;;;;;8.70;6.50;;;;;;;2.15;100.00;98971.81;108562;1280;21988;-78
2024/01/14 06:48:41;;;;;;;7.60;6.60;;;;;;;2.22;100.00;98985.70;109114;1273;21983;-78
2024/01/14 06:51:56;;;;;;;10.50;9.40;;;;;;;2.18;100.00;98981.19;109406;1272;22446;-79
2024/01/14 06:54:45;;;;;;;12.00;9.40;;;;;;;2.16;100.00;98978.83;109284;1272;22365;-77
2024/01/14 06:57:39;;;;;;;12.50;8.40;;;;;;;2.12;100.00;98981.48;109194;1271;21986;-78
2024/01/14 07:00:16;;;;;;;8.00;6.30;;;;;;;2.10;100.00;98994.23;109088;1272;23034;-78
2024/01/14 07:04:23;;;;;;;8.60;6.10;;;;;;;2.07;100.00;98995.34;109258;1272;22994;-79
2024/01/14 07:07:46;;;;;;;;;;;;;;;;;;;;;
2024/01/14 07:11:07;;;;;;;;;;;;;;;;;;;;;
2024/01/14 07:14:24;;;;;;;9.80;8.70;;;;;;;2.04;100.00;99001.27;108774;1267;23136;-78
2024/01/14 07:17:22;;;;;;;15.60;12.50;;;;;;;1.99;100.00;98998.30;108773;1279;21997;-78
2024/01/14 07:20:03;;;;;;;;;;;;;;;;;;;;;
2024/01/14 07:23:19;;;;;;;10.00;8.90;;;;;;;2.03;100.00;99009.34;108750;1279;21997;-79
2024/01/14 07:26:30;;;;;;;8.80;7.30;;;;;;;2.03;100.00;99011.74;108738;1279;22795;-78
2024/01/14 07:29:10;;;;;;;9.60;7.40;;;;;;;2.05;100.00;99014.97;108875;1274;21999;-79
2024/01/14 07:31:42;;;;;;;10.80;8.20;;;;;;;2.06;100.00;99014.07;109837;1264;21980;-76
2024/01/14 07:34:15;;;;;;;7.80;6.60;;;;;;;2.08;100.00;99011.81;110371;1259;22155;-78
2024/01/14 07:36:45;;;;;;;9.00;8.00;;;;;;;2.09;100.00;99008.16;110563;1260;21963;-77
2024/01/14 07:39:16;;;;;;;8.40;7.60;;;;;;;2.12;100.00;99004.83;110919;1255;21997;-79
2024/01/14 07:41:52;;;;;;;10.70;8.40;;;;;;;2.15;100.00;99004.59;110897;1254;22266;-78
2024/01/14 07:44:26;;;;;;;11.90;10.20;;;;;;;2.19;100.00;99006.73;111108;1254;22140;-78
2024/01/14 07:47:03;;;;;;;9.50;8.50;;;;;;;2.17;100.00;99005.91;111005;1254;21953;-78
2024/01/14 07:49:38;;;;;;;;;;;;;;;2.11;100.00;99006.05;110451;1258;23613;-76
2024/01/14 07:52:12;;;;;;;34.70;26.60;;;;;;;2.03;100.00;99010.73;110530;1261;21987;-78
2024/01/14 07:54:44;;;;;;;9.60;8.60;;;;;;;2.05;100.00;99011.02;110026;1268;22040;-78
2024/01/14 08:01:14;;;;;;;8.10;7.20;;;;;;;2.08;100.00;99020.71;109244;1273;21986;-76
2024/01/14 08:03:48;;;;;;;8.30;7.10;;;;;;;2.11;100.00;99021.16;109277;1273;23134;-75
2024/01/14 08:06:24;;;;;;;10.10;7.10;;;;;;;2.14;100.00;99019.88;108854;1276;21993;-76
2024/01/14 08:08:59;;;;;;;10.20;6.60;;;;;;;2.20;100.00;99019.06;108857;1278;24549;-76
2024/01/14 08:11:32;;;;;;;32.50;17.20;;;;;;;2.21;100.00;99015.27;108836;1278;23720;-77
2024/01/14 08:14:09;;;;;;;9.40;6.90;;;;;;;2.26;100.00;99021.98;109368;1271;22074;-77
2024/01/14 08:16:39;;;;;;;10.10;6.80;;;;;;;2.29;100.00;99020.73;109448;1271;22008;-77
2024/01/14 08:19:27;;;;;;;14.40;8.30;;;;;;;2.30;100.00;99022.73;109274;1273;22836;-78
2024/01/14 08:22:14;;;;;;;10.70;7.70;;;;;;;2.36;100.00;99020.73;109574;1272;22077;-79
2024/01/14 08:25:48;;;;;;;;;;;;;;;;;;;;;
2024/01/14 08:28:30;;;;;;;10.00;6.90;;;;;;;2.49;100.00;99026.38;109125;1277;23616;-79
2024/01/14 08:31:37;;;;;;;10.90;7.70;;;;;;;2.55;100.00;99028.81;109332;1267;21995;-78
2024/01/14 08:34:53;;;;;;;10.10;8.20;;;;;;;2.57;100.00;99030.82;110189;1264;21990;-76
2024/01/14 08:38:21;;;;;;;10.70;7.20;;;;;;;2.58;100.00;99030.27;110420;1264;21972;-77
2024/01/14 08:41:54;;;;;;;10.70;7.50;;;;;;;2.63;100.00;99039.42;110369;1264;23746;-79
2024/01/14 08:44:40;;;;;;;9.50;6.40;;;;;;;2.66;100.00;99038.48;110982;1258;22842;-79
2024/01/14 08:47:57;;;;;;;9.80;6.50;;;;;;;2.70;100.00;99037.50;110902;1258;22731;-77
2024/01/14 08:50:50;;;;;;;10.30;7.30;;;;;;;2.71;100.00;99036.61;110723;1258;22728;-78
2024/01/14 08:53:46;;;;;;;8.30;6.20;;;;;;;2.72;100.00;99034.71;111018;1255;21946;-78
2024/01/14 08:56:29;;;;;;;12.50;7.20;;;;;;;2.71;100.00;99034.22;111326;1254;23618;-77
2024/01/14 08:59:09;;;;;;;10.30;6.80;;;;;;;2.72;100.00;99037.64;110629;1259;21991;-78
2024/01/14 09:02:04;;;;;;;11.40;6.60;;;;;;;2.74;100.00;99042.58;110587;1260;22456;-77
2024/01/14 09:04:44;;;;;;;12.90;9.20;;;;;;;2.76;100.00;99046.48;110715;1261;23644;-77
2024/01/14 09:08:05;;;;;;;9.70;6.80;;;;;;;2.73;100.00;99052.70;110042;1268;23721;-76
2024/01/14 09:10:47;;;;;;;11.40;7.10;;;;;;;2.72;100.00;99059.11;110142;1267;22430;-76
2024/01/14 09:13:20;;;;;;;9.60;7.10;;;;;;;2.72;100.00;99061.16;109977;1267;21979;-77
2024/01/14 09:16:14;;;;;;;10.20;8.10;;;;;;;2.70;100.00;99061.23;110131;1267;23073;-77
2024/01/14 09:18:49;;;;;;;12.80;7.70;;;;;;;2.68;100.00;99059.73;110363;1265;21968;-75
2024/01/14 09:21:38;;;;;;;10.00;7.20;;;;;;;2.67;100.00;99055.97;109941;1263;21972;-77
2024/01/14 09:24:30;;;;;;;9.50;6.80;;;;;;;2.68;100.00;99052.68;109899;1268;21983;-77
2024/01/14 09:27:45;;;;;;;6.90;5.30;;;;;;;2.73;100.00;99045.50;109993;1269;22179;-77
2024/01/14 09:30:27;;;;;;;9.80;5.40;;;;;;;2.78;100.00;99053.27;109962;1268;21999;-75
2024/01/14 09:33:14;;;;;;;19.10;14.30;;;;;;;2.82;100.00;99055.91;109794;1263;22049;-76
2024/01/14 09:35:54;;;;;;;10.80;7.30;;;;;;;2.85;100.00;99060.99;109492;1271;21981;-76
2024/01/14 09:38:34;;;;;;;9.60;8.00;;;;;;;2.88;100.00;99061.95;109496;1273;23705;-76
2024/01/14 09:41:35;;;;;;;16.20;9.10;;;;;;;2.92;100.00;99055.66;109622;1257;23033;-77
2024/01/14 09:44:22;;;;;;;11.00;7.50;;;;;;;2.92;100.00;99050.51;109747;1269;21983;-76
2024/01/14 09:47:28;;;;;;;16.20;9.90;;;;;;;2.89;100.00;99049.54;110279;1264;22152;-76
2024/01/14 09:50:17;;;;;;;11.80;7.80;;;;;;;2.90;100.00;99046.61;110467;1262;22001;-77
2024/01/14 09:53:07;;;;;;;10.00;7.20;;;;;;;2.87;100.00;99041.35;110423;1264;23065;-76
2024/01/14 09:55:55;;;;;;;;;;;;;;;;;;;;;
2024/01/14 09:58:52;;;;;;;9.80;7.20;;;;;;;2.87;100.00;99030.70;110663;1260;21971;-77
2024/01/14 10:01:31;;;;;;;31.00;25.60;;;;;;;2.88;100.00;99029.81;110602;1260;22373;-77
2024/01/14 10:04:37;;;;;;;14.80;7.20;;;;;;;2.89;100.00;99030.98;110669;1260;21970;-78
2024/01/14 10:07:33;;;;;;;9.20;6.30;;;;;;;2.91;100.00;99033.17;110303;1265;21982;-77
2024/01/14 10:10:10;;;;;;;13.80;7.70;;;;;;;2.96;100.00;99032.02;110285;1265;23695;-78
2024/01/14 10:13:32;;;;;;;9.20;6.00;;;;;;;2.97;100.00;99029.39;110415;1254;21983;-77
2024/01/14 10:16:26;;;;;;;10.70;6.30;;;;;;;2.94;100.00;99027.40;110411;1260;23584;-75
2024/01/14 10:19:25;;;;;;;15.40;9.00;;;;;;;2.93;100.00;99025.90;110652;1259;23725;-77
2024/01/14 10:21:57;;;;;;;15.00;9.10;;;;;;;2.91;100.00;99024.73;110036;1266;22934;-77
2024/01/14 10:26:21;;;;;;;12.50;8.80;;;;;;;2.84;100.00;99018.75;110368;1260;21967;-77
2024/01/14 10:30:21;;;;;;;;;;;;;;;;;;;;;
2024/01/14 10:34:09;;;;;;;11.60;7.60;;;;;;;2.77;100.00;99013.95;108393;1285;21982;-77
2024/01/14 10:37:22;;;;;;;;;;;;;;;;;;;;;
2024/01/14 10:41:02;;;;;;;12.40;7.50;;;;;;;2.84;100.00;99018.08;108412;1285;22316;-75
2024/01/14 10:43:55;;;;;;;19.60;13.00;;;;;;;2.84;100.00;99019.10;107496;1297;22037;-79
2024/01/14 10:46:23;;;;;;;11.90;7.40;;;;;;;2.90;100.00;99016.71;107156;1296;22027;-76
2024/01/14 10:49:18;;;;;;;;;;;;;;;2.91;100.00;99017.69;107233;1299;23088;-77
2024/01/14 10:52:11;;;;;;;12.20;7.70;;;;;;;2.85;100.00;99017.52;106983;1299;22033;-75
2024/01/14 10:55:04;;;;;;;;;;;;;;;2.88;100.00;99012.64;107078;1299;21993;-76
2024/01/14 10:58:39;;;;;;;14.40;8.60;;;;;;;2.92;100.00;99013.55;107158;1293;23075;-78
2024/01/14 11:01:28;;;;;;;;;;;;;;;;;;;;;
2024/01/14 11:04:51;;;;;;;;;;;;;;;;;;;;;
2024/01/14 11:08:17;;;;;;;14.00;6.90;;;;;;;3.01;100.00;99000.41;107669;1293;23592;-77
2024/01/14 11:11:11;;;;;;;10.50;6.50;;;;;;;2.96;100.00;98994.03;108476;1282;22178;-77
2024/01/14 11:14:28;;;;;;;9.90;6.60;;;;;;;2.95;100.00;98995.09;108065;1287;22134;-76
2024/01/14 11:17:22;;;;;;;13.10;7.70;;;;;;;2.95;100.00;98989.40;108525;1283;22047;-76
2024/01/14 11:20:13;;;;;;;10.70;7.60;;;;;;;2.94;100.00;98990.48;108684;1276;22749;-76
2024/01/14 11:22:51;;;;;;;9.70;6.60;;;;;;;2.93;100.00;98990.16;109005;1275;22771;-75
2024/01/14 11:25:45;;;;;;;10.30;6.10;;;;;;;2.93;100.00;98988.27;109062;1275;21993;-76
2024/01/14 11:28:22;;;;;;;15.20;5.70;;;;;;;2.96;100.00;98986.96;108799;1281;23618;-77
2024/01/14 11:31:06;;;;;;;9.10;5.50;;;;;;;2.98;100.00;98982.44;108610;1280;22179;-77
2024/01/14 11:33:54;;;;;;;11.20;6.00;;;;;;;2.99;100.00;98984.31;108845;1277;22190;-78
2024/01/14 11:37:02;;;;;;;10.00;5.70;;;;;;;3.00;100.00;98987.89;108783;1278;23851;-75
2024/01/14 11:39:44;;;;;;;8.60;5.30;;;;;;;3.01;100.00;98982.02;109394;1272;23721;-78
2024/01/14 11:43:10;;;;;;;10.80;6.10;;;;;;;3.04;100.00;98980.39;109360;1272;22900;-78
2024/01/14 11:46:43;;;;;;;9.80;6.90;;;;;;;3.04;100.00;98980.38;109340;1272;21965;-77
2024/01/14 11:49:57;;;;;;;11.90;6.30;;;;;;;2.99;100.00;98975.91;108827;1277;22004;-77
2024/01/14 11:58:25;;;;;;;9.60;6.10;;;;;;;2.87;100.00;98963.51;108932;1276;22005;-77
2024/01/14 12:02:19;;;;;;;;;;;;;;;2.78;100.00;98963.07;108438;1284;22570;-78
2024/01/14 12:06:03;;;;;;;7.70;5.10;;;;;;;2.70;100.00;98958.68;107801;1292;22131;-78
2024/01/14 12:09:15;;;;;;;13.20;7.90;;;;;;;2.73;100.00;98960.46;107853;1293;22028;-76
2024/01/14 12:12:18;;;;;;;13.60;8.40;;;;;;;2.79;100.00;98963.23;107721;1293;22284;-78
2024/01/14 12:15:20;;;;;;;10.40;6.40;;;;;;;2.84;100.00;98964.11;107862;1289;24325;-82
2024/01/14 12:18:48;;;;;;;7.80;5.60;;;;;;;2.86;100.00;98966.81;108079;1289;22007;-77
2024/01/14 12:21:32;;;;;;;9.90;6.60;;;;;;;2.87;100.00;98964.54;108630;1280;22140;-77
2024/01/14 12:24:51;;;;;;;10.90;7.50;;;;;;;2.89;100.00;98962.77;108413;1279;21991;-77
2024/01/14 12:27:42;;;;;;;11.90;7.20;;;;;;;2.91;100.00;98963.22;108498;1280;23650;-76
2024/01/14 12:30:46;;;;;;;11.40;8.40;;;;;;;2.94;100.00;98956.77;108409;1283;22056;-77
2024/01/14 12:33:43;;;;;;;13.70;9.70;;;;;;;2.96;100.00;98948.33;108531;1283;22075;-77
2024/01/14 12:36:49;;;;;;;12.40;7.70;;;;;;;2.95;100.00;98948.00;108485;1283;22085;-77
2024/01/14 12:39:43;;;;;;;13.00;8.70;;;;;;;2.95;100.00;98952.98;108439;1283;23056;-76
2024/01/14 12:42:26;;;;;;;15.10;11.70;;;;;;;2.98;100.00;98947.21;108597;1273;21999;-77
2024/01/14 12:45:52;;;;;;;21.00;15.00;;;;;;;3.02;100.00;98945.72;109646;1266;22119;-79
2024/01/14 12:49:25;;;;;;;16.80;10.60;;;;;;;3.01;100.00;98944.38;110527;1261;22077;-76
2024/01/14 12:52:19;;;;;;;32.60;24.10;;;;;;;2.99;100.00;98942.20;110577;1262;22745;-75
2024/01/14 12:54:55;;;;;;;25.10;17.80;;;;;;;2.98;100.00;98939.66;109907;1268;23078;-79
2024/01/14 12:58:07;;;;;;;20.80;16.60;;;;;;;2.92;100.00;98940.69;109056;1273;22004;-77
2024/01/14 13:01:32;;;;;;;20.70;17.00;;;;;;;2.78;100.00;98941.59;109301;1273;24464;-76
2024/01/14 13:04:34;;;;;;;18.50;13.80;;;;;;;2.71;100.00;98944.90;108799;1278;22000;-77
2024/01/14 13:07:30;;;;;;;26.30;19.30;;;;;;;2.66;100.00;98943.50;108482;1284;23062;-77
2024/01/14 13:10:50;;;;;;;25.40;17.10;;;;;;;2.64;100.00;98946.48;108478;1284;22000;-77
2024/01/14 13:13:49;;;;;;;18.50;13.20;;;;;;;2.65;100.00;98945.94;108817;1276;21995;-78
2024/01/14 13:16:30;;;;;;;24.30;16.60;;;;;;;2.70;100.00;98941.65;109285;1272;21984;-77
2024/01/14 13:19:16;;;;;;;18.90;13.20;;;;;;;2.78;100.00;98941.77;109294;1272;21985;-77
2024/01/14 13:21:55;;;;;;;11.60;8.10;;;;;;;2.82;100.00;98940.28;109508;1267;21971;-77
2024/01/14 13:24:31;;;;;;;11.20;6.90;;;;;;;2.83;100.00;98941.63;109427;1265;22307;-76
2024/01/14 13:27:19;;;;;;;12.10;7.50;;;;;;;2.82;100.00;98938.75;110133;1251;23136;-76
2024/01/14 13:30:11;;;;;;;10.20;7.10;;;;;;;2.82;100.00;98941.82;110399;1264;22060;-76
2024/01/14 13:32:41;;;;;;;11.30;7.40;;;;;;;2.85;100.00;98943.98;110419;1264;22937;-80
2024/01/14 13:35:17;;;;;;;8.30;5.60;;;;;;;2.86;100.00;98941.90;109808;1267;22173;-77
2024/01/14 13:38:15;;;;;;;10.40;6.20;;;;;;;2.82;100.00;98935.81;109982;1268;22310;-75
2024/01/14 13:41:13;;;;;;;11.80;7.00;;;;;;;2.80;100.00;98933.84;109565;1272;22046;-77
2024/01/14 13:43:55;;;;;;;8.40;5.80;;;;;;;2.78;100.00;98934.38;109513;1271;22455;-77
2024/01/14 13:47:05;;;;;;;23.00;16.30;;;;;;;2.73;100.00;98935.04;109487;1272;21977;-77
2024/01/14 13:49:51;;;;;;;11.40;8.10;;;;;;;2.70;100.00;98938.06;109626;1271;21978;-76
2024/01/14 13:52:21;;;;;;;11.60;7.70;;;;;;;2.70;100.00;98933.41;109679;1268;21997;-76
2024/01/14 13:54:58;;;;;;;13.70;9.50;;;;;;;2.71;100.00;98932.01;109826;1265;21978;-76
2024/01/14 13:57:39;;;;;;;;;;;;;;;;;;;;;
2024/01/14 14:00:32;;;;;;;11.50;8.30;;;;;;;2.74;100.00;98929.89;110747;1260;22449;-78
2024/01/14 14:03:10;;;;;;;11.50;7.60;;;;;;;2.73;100.00;98930.76;110693;1260;23030;-77
2024/01/14 14:05:54;;;;;;;12.80;7.70;;;;;;;2.72;100.00;98930.96;110654;1260;23829;-75
2024/01/14 14:08:25;;;;;;;10.80;7.50;;;;;;;2.70;100.00;98931.68;110655;1259;21987;-77
2024/01/14 14:11:05;;;;;;;10.00;6.00;;;;;;;2.69;100.00;98936.52;110764;1259;21962;-77
2024/01/14 14:13:46;;;;;;;7.30;5.20;;;;;;;2.67;100.00;98938.48;110624;1260;22821;-77
2024/01/14 14:16:22;;;;;;;12.40;9.10;;;;;;;2.66;100.00;98941.27;110682;1260;21972;-77
2024/01/14 14:19:13;;;;;;;14.30;10.40;;;;;;;2.65;100.00;98944.36;110627;1260;23072;-77
2024/01/14 14:21:48;;;;;;;17.50;10.40;;;;;;;2.66;100.00;98943.49;110570;1264;22724;-76
2024/01/14 14:24:31;;;;;;;16.70;10.00;;;;;;;2.67;100.00;98940.55;110343;1264;22236;-77
2024/01/14 14:27:13;;;;;;;15.60;10.30;;;;;;;2.62;100.00;98924.20;110478;1264;21991;-76
2024/01/14 14:29:54;;;;;;;17.70;11.50;;;;;;;2.67;100.00;98933.16;110460;1264;21959;-76
2024/01/14 14:32:33;;;;;;;21.90;13.90;;;;;;;2.65;100.00;98931.48;110336;1264;23667;-77
2024/01/14 14:35:12;;;;;;;17.90;11.20;;;;;;;2.62;100.00;98927.11;109815;1269;24133;-77
2024/01/14 14:37:49;;;;;;;20.80;11.30;;;;;;;2.57;100.00;98925.20;109986;1269;22122;-77
2024/01/14 14:40:29;;;;;;;23.60;16.10;;;;;;;2.51;100.00;98923.98;110071;1263;21985;-77
2024/01/14 14:43:07;;;;;;;35.90;21.20;;;;;;;2.47;100.00;98921.34;110526;1261;21959;-77
2024/01/14 14:45:42;;;;;;;34.10;23.30;;;;;;;2.45;100.00;98921.76;110598;1263;22015;-77
2024/01/14 14:48:23;;;;;;;36.00;22.70;;;;;;;2.44;100.00;98923.14;110649;1263;21970;-76
2024/01/14 14:50:58;;;;;;;32.60;21.10;;;;;;;2.42;100.00;98923.55;110588;1263;23647;-79
2024/01/14 14:53:38;;;;;;;36.70;22.70;;;;;;;2.40;100.00;98915.89;110656;1260;21989;-77
2024/01/14 14:56:10;;;;;;;34.50;23.80;;;;;;;2.37;100.00;98919.58;111012;1253;24291;-78
2024/01/14 14:58:59;;;;;;;35.70;24.60;;;;;;;2.35;100.00;98919.79;111329;1253;21991;-78
2024/01/14 15:01:43;;;;;;;53.70;40.50;;;;;;;2.35;100.00;98917.56;111435;1252;23573;-79
2024/01/14 15:04:23;;;;;;;46.10;35.10;;;;;;;2.36;100.00;98911.02;111045;1251;21974;-78
2024/01/14 15:07:20;;;;;;;40.70;30.60;;;;;;;2.38;100.00;98910.08;110611;1263;22006;-80
2024/01/14 15:10:17;;;;;;;31.70;24.60;;;;;;;2.36;100.00;98907.55;110700;1263;22015;-78
2024/01/14 15:13:05;;;;;;;22.50;16.70;;;;;;;2.34;100.00;98908.30;110369;1263;21975;-81
2024/01/14 15:15:40;;;;;;;37.80;26.60;;;;;;;2.33;100.00;98904.02;110605;1264;21990;-77
2024/01/14 15:18:14;;;;;;;31.60;24.20;;;;;;;2.32;100.00;98899.08;110536;1260;23019;-77
2024/01/14 15:21:28;;;;;;;;;;;;;;;;;;;;;
2024/01/14 15:24:11;;;;;;;39.30;27.10;;;;;;;2.30;100.00;98892.45;110403;1260;21984;-78
2024/01/14 15:27:01;;;;;;;34.90;26.90;;;;;;;2.30;100.00;98889.70;110143;1258;897295;-77
2024/01/14 15:30:01;;;;;;;33.00;22.10;;;;;;;2.28;100.00;98891.15;110860;1258;22031;-79
2024/01/14 15:32:49;;;;;;;31.90;23.70;;;;;;;2.24;100.00;98892.45;110267;1264;21977;-77
2024/01/14 15:36:43;;;;;;;45.30;29.80;;;;;;;2.23;100.00;98894.54;110185;1264;23694;-78
2024/01/14 15:44:41;;;;;;;52.10;44.30;;;;;;;2.04;100.00;98888.52;108982;1278;22000;-78
2024/01/14 15:48:05;;;;;;;37.40;33.00;;;;;;;2.06;100.00;98889.84;108903;1277;22000;-79
2024/01/14 15:51:31;;;;;;;19.20;15.30;;;;;;;2.04;100.00;98886.27;109232;1273;23034;-76
2024/01/14 15:54:08;;;;;;;22.00;15.80;;;;;;;2.05;100.00;98881.28;109095;1273;22019;-77
2024/01/14 15:57:16;;;;;;;23.40;16.60;;;;;;;2.07;100.00;98882.80;108899;1277;21981;-77
2024/01/14 16:00:44;;;;;;;28.10;21.20;;;;;;;2.05;100.00;98881.11;108215;1289;23066;-77
2024/01/14 16:04:27;;;;;;;;;;;;;;;;;;;;;
2024/01/14 16:07:21;;;;;;;30.60;21.40;;;;;;;2.04;100.00;98879.58;107518;1296;22053;-78
2024/01/14 16:09:50;;;;;;;28.50;19.30;;;;;;;2.09;100.00;98877.92;107681;1293;22211;-80
2024/01/14 16:12:50;;;;;;;28.50;19.00;;;;;;;2.12;100.00;98870.78;107737;1293;23748;-80
2024/01/14 16:15:35;;;;;;;23.90;17.60;;;;;;;2.10;100.00;98869.66;108245;1277;22461;-77
2024/01/14 16:18:30;;;;;;;24.30;17.10;;;;;;;2.10;100.00;98873.44;108998;1276;22001;-77
2024/01/14 16:21:12;;;;;;;25.20;18.30;;;;;;;2.10;100.00;98874.30;109004;1276;22002;-78
2024/01/14 16:24:05;;;;;;;21.00;14.20;;;;;;;2.09;100.00;98871.58;109115;1277;21998;-78
2024/01/14 16:26:44;;;;;;;23.00;18.20;;;;;;;2.06;100.00;98870.43;109326;1276;23612;-77
2024/01/14 16:29:22;;;;;;;49.40;33.50;;;;;;;2.04;100.00;98868.43;108912;1276;22031;-78
2024/01/14 16:32:06;;;;;;;85.50;67.90;;;;;;;2.05;100.00;98868.92;109311;1275;21997;-81
2024/01/14 16:34:55;;;;;;;42.60;35.40;;;;;;;2.05;100.00;98864.98;109067;1278;24463;-77
2024/01/14 16:37:30;;;;;;;37.50;27.80;;;;;;;2.05;100.00;98860.86;109302;1268;24373;-77